sensor_id;sensor_type;location;lat;lon;timestamp;temperature;humidity
12504;DHT22;6316;48.118;-1.690;2023-04-24T12:20:07;17.70;99.90
12504;DHT22;6316;48.118;-1.690;2023-04-24T12:22:53;17.70;99.90
12504;DHT22;6316;48.118;-1.690;2023-04-24T12:25:22;17.80;99.90
12504;DHT22;6316;48.118;-1.690;2023-04-24T12:30:33;18.00;99.90
12504;DHT22;6316;48.118;-1.690;2023-04-24T12:33:00;18.10;99.90
12504;DHT22;6316;48.118;-1.690;2023-04-24T12:35:28;18.10;99.90
12504;DHT22;6316;48.118;-1.690;2023-04-24T12:37:54;18.20;99.90
12504;DHT22;6316;48.118;-1.690;2023-04-24T12:40:21;18.20;99.90
12504;DHT22;6316;48.118;-1.690;2023-04-24T12:42:49;18.20;99.90
12504;DHT22;6316;48.118;-1.690;2023-04-24T12:45:17;18.20;99.90
12504;DHT22;6316;48.118;-1.690;2023-04-24T12:47:44;18.20;99.90
12504;DHT22;6316;48.118;-1.690;2023-04-24T12:50:14;18.30;99.90
12504;DHT22;6316;48.118;-1.690;2023-04-24T12:52:41;18.30;99.90
12504;DHT22;6316;48.118;-1.690;2023-04-24T12:55:07;18.40;99.90
12504;DHT22;6316;48.118;-1.690;2023-04-24T12:57:34;18.40;99.90
12504;DHT22;6316;48.118;-1.690;2023-04-24T13:00:00;18.40;99.90
12504;DHT22;6316;48.118;-1.690;2023-04-24T13:02:28;18.40;99.90
12504;DHT22;6316;48.118;-1.690;2023-04-24T13:04:55;18.20;99.90
12504;DHT22;6316;48.118;-1.690;2023-04-24T13:07:21;18.10;99.90
12504;DHT22;6316;48.118;-1.690;2023-04-24T13:09:48;18.00;99.90
12504;DHT22;6316;48.118;-1.690;2023-04-24T13:12:14;18.00;99.90
12504;DHT22;6316;48.118;-1.690;2023-04-24T13:14:40;18.00;99.90
12504;DHT22;6316;48.118;-1.690;2023-04-24T13:17:06;18.10;99.90
12504;DHT22;6316;48.118;-1.690;2023-04-24T13:19:40;18.00;99.90
12504;DHT22;6316;48.118;-1.690;2023-04-24T13:22:08;18.00;99.90
12504;DHT22;6316;48.118;-1.690;2023-04-24T13:24:34;18.00;99.90
12504;DHT22;6316;48.118;-1.690;2023-04-24T13:27:00;18.10;99.90
12504;DHT22;6316;48.118;-1.690;2023-04-24T13:29:26;18.20;99.90
12504;DHT22;6316;48.118;-1.690;2023-04-24T13:31:52;18.30;99.90
12504;DHT22;6316;48.118;-1.690;2023-04-24T13:34:25;18.50;99.90
12504;DHT22;6316;48.118;-1.690;2023-04-24T13:36:53;18.50;99.90
12504;DHT22;6316;48.118;-1.690;2023-04-24T13:39:19;18.50;99.90
12504;DHT22;6316;48.118;-1.690;2023-04-24T13:41:45;18.50;99.90
12504;DHT22;6316;48.118;-1.690;2023-04-24T13:44:12;18.50;99.90
12504;DHT22;6316;48.118;-1.690;2023-04-24T13:46:38;18.40;99.90
12504;DHT22;6316;48.118;-1.690;2023-04-24T13:49:03;18.50;99.90
12504;DHT22;6316;48.118;-1.690;2023-04-24T13:51:29;18.40;99.90
12504;DHT22;6316;48.118;-1.690;2023-04-24T13:53:55;18.40;99.90
12504;DHT22;6316;48.118;-1.690;2023-04-24T13:56:21;18.30;99.90
12504;DHT22;6316;48.118;-1.690;2023-04-24T13:58:48;18.30;99.90
12504;DHT22;6316;48.118;-1.690;2023-04-24T14:01:14;18.30;99.90
12504;DHT22;6316;48.118;-1.690;2023-04-24T14:03:41;18.40;99.90
12504;DHT22;6316;48.118;-1.690;2023-04-24T14:06:07;18.40;99.90
12504;DHT22;6316;48.118;-1.690;2023-04-24T14:08:32;18.30;99.90
12504;DHT22;6316;48.118;-1.690;2023-04-24T14:10:58;18.30;99.90
12504;DHT22;6316;48.118;-1.690;2023-04-24T14:13:24;18.30;99.90
12504;DHT22;6316;48.118;-1.690;2023-04-24T14:15:50;18.30;99.90
12504;DHT22;6316;48.118;-1.690;2023-04-24T14:18:16;18.20;99.90
12504;DHT22;6316;48.118;-1.690;2023-04-24T14:20:42;18.20;99.90
12504;DHT22;6316;48.118;-1.690;2023-04-24T14:23:08;18.10;99.90
12504;DHT22;6316;48.118;-1.690;2023-04-24T14:25:33;18.00;99.90
12504;DHT22;6316;48.118;-1.690;2023-04-24T14:27:59;17.80;99.90
12504;DHT22;6316;48.118;-1.690;2023-04-24T14:30:25;17.60;99.90
12504;DHT22;6316;48.118;-1.690;2023-04-24T14:32:50;17.50;99.90
12504;DHT22;6316;48.118;-1.690;2023-04-24T14:35:16;17.30;99.90
12504;DHT22;6316;48.118;-1.690;2023-04-24T14:37:42;17.10;99.90
12504;DHT22;6316;48.118;-1.690;2023-04-24T14:40:08;16.90;99.90
12504;DHT22;6316;48.118;-1.690;2023-04-24T14:42:34;16.70;99.90
12504;DHT22;6316;48.118;-1.690;2023-04-24T14:45:01;16.60;99.90
12504;DHT22;6316;48.118;-1.690;2023-04-24T14:47:27;16.70;99.90
12504;DHT22;6316;48.118;-1.690;2023-04-24T14:49:52;16.70;99.90
